Home PIREPS Pireps

Flight BEL2555

  • Submitted By: Johan Willems
  • Departure Airport: Bruxelles National (EBBR)
  • Arrival Airport: Warszawa-Okecie (EPWA)
  • Aircraft: BAE AVRO RJ1 (OO-DWA)
  • Flight Time: 04.05
  • Date Submitted: 12/04/2015
  • Status: Accepted
Flight Details
Gross Revenue:
(79 load / € 155.00 per unit
€ 12,245.00
Fuel Cost:
(5767 fuel used @ 5.1 / unit)
€ 29,411.70

Additional Log Information:

View Log

Aircraft Used in flight is Airbus A320 brussels
11:14 Brakes are Released
11:16 Brakes are On
11:18 Brakes are Released
11:22 You Took off @ 148 Knots and Flaps at Position 3
Departure Weather
EBBR 120850Z 22008KT CAVOK 10/04 Q1030 NOSIGrn
11:22 Landing Gear Up @ 158 Knots and 400 Feet
13:07 Landing Gear Down @ 141 Knots and 1960 Feet
13:10 You Landed @ 135 Knots and with -300 Vertical Speed
Arrival Weather
EPWA 121030Z 28012KT 250V320 9999 FEW046 13/M00 Q1027 NOSIGrn
13:16 Brakes are On
13:17 Brussels Bel-Track1.0.0.9

Route Map

Corporate About Us Our Team Vacancies Information Fleet Route Network Rules and Regulations Operations Flight Schedules Event Center Tours Partners IVAO Vatsim Acars dev FSCB

fb Users Online No pilots online!
0 Pilot(s) and 75 Guest(s) Online
CMS by phpVMS - Design by Crazycreatives.com - Copyright © 2018 - Brussels Airlines Virtual